createdAt,value
2019-05-07T00:00:05.564Z,94412.30
2019-05-07T00:01:11.757Z,94413.63
2019-05-07T00:02:16.017Z,94416.30
2019-05-07T00:03:18.776Z,94416.34
2019-05-07T00:04:22.449Z,94422.44
2019-05-07T00:05:25.377Z,94413.83
2019-05-07T00:06:28.144Z,94417.91
2019-05-07T00:07:31.966Z,94412.50
2019-05-07T00:08:34.961Z,94418.96
2019-05-07T00:09:37.764Z,94419.38
2019-05-07T00:10:42.483Z,94425.02
2019-05-07T00:11:46.542Z,94407.98
2019-05-07T00:12:49.458Z,94413.83
2019-05-07T00:13:52.329Z,94410.88
2019-05-07T00:15:00.896Z,94416.42
2019-05-07T00:15:59.745Z,94400.14
2019-05-07T00:17:04.423Z,94401.23
2019-05-07T00:18:07.030Z,94404.71
2019-05-07T00:19:09.951Z,94398.28
2019-05-07T00:20:13.165Z,94401.68
2019-05-07T00:21:15.933Z,94412.06
2019-05-07T00:22:18.693Z,94408.34
2019-05-07T00:23:23.231Z,94408.14
2019-05-07T00:24:25.840Z,94405.16
2019-05-07T00:25:28.636Z,94401.48
2019-05-07T00:26:32.078Z,94406.28
2019-05-07T00:27:34.791Z,94405.39
2019-05-07T00:28:37.555Z,94404.06
2019-05-07T00:29:42.693Z,94395.46
2019-05-07T00:30:44.831Z,94398.73
2019-05-07T00:31:49.007Z,94395.46
2019-05-07T00:32:53.125Z,94407.53
2019-05-07T00:33:56.027Z,94402.89
2019-05-07T00:35:02.504Z,94402.73
2019-05-07T00:36:09.232Z,94399.02
2019-05-07T00:37:25.625Z,94408.58
2019-05-07T00:38:31.900Z,94404.27
2019-05-07T00:39:45.325Z,94413.39
2019-05-07T00:40:51.933Z,94419.17
2019-05-07T00:42:03.049Z,94417.52
2019-05-07T00:43:12.025Z,94404.42
2019-05-07T00:44:16.826Z,94407.98
2019-05-07T00:45:23.755Z,94403.98
2019-05-07T00:46:27.120Z,94418.56
2019-05-07T00:47:29.876Z,94408.79
2019-05-07T00:48:33.032Z,94408.50
2019-05-07T00:49:35.810Z,94415.90
2019-05-07T00:50:41.938Z,94410.56
2019-05-07T00:51:44.209Z,94412.19
2019-05-07T00:52:46.936Z,94417.23
2019-05-07T00:53:51.929Z,94412.19
2019-05-07T00:54:55.067Z,94406.56
2019-05-07T00:55:57.773Z,94413.44
2019-05-07T00:57:00.468Z,94402.28
2019-05-07T00:58:03.248Z,94411.38
2019-05-07T00:59:06.001Z,94410.65
2019-05-07T01:00:09.723Z,94411.38
2019-05-07T01:01:13.053Z,94409.84
2019-05-07T01:02:15.958Z,94422.27
2019-05-07T01:03:18.754Z,94409.52
2019-05-07T01:04:22.920Z,94414.85
2019-05-07T01:05:25.819Z,94412.11
2019-05-07T01:06:28.573Z,94415.30
2019-05-07T01:07:32.500Z,94417.67
2019-05-07T01:08:35.557Z,94411.22
2019-05-07T01:09:38.327Z,94413.39
2019-05-07T01:10:41.968Z,94414.41
2019-05-07T01:11:44.949Z,94409.39
2019-05-07T01:12:47.788Z,94417.39
2019-05-07T01:13:52.062Z,94412.55
2019-05-07T01:14:54.988Z,94412.50
2019-05-07T01:15:57.771Z,94412.27
2019-05-07T01:17:02.433Z,94415.73
2019-05-07T01:18:04.953Z,94423.73
2019-05-07T01:19:07.755Z,94422.20
2019-05-07T01:20:12.586Z,94424.55
2019-05-07T01:21:14.952Z,94423.45
2019-05-07T01:22:17.737Z,94425.07
2019-05-07T01:23:22.653Z,94429.59
2019-05-07T01:24:24.872Z,94420.98
2019-05-07T01:25:27.681Z,94416.63
2019-05-07T01:26:32.786Z,94423.89
2019-05-07T01:27:34.925Z,94412.42
2019-05-07T01:28:55.848Z,94423.28
2019-05-07T01:29:58.615Z,94435.56
2019-05-07T01:31:02.175Z,94429.66
2019-05-07T01:32:12.781Z,94427.20
2019-05-07T01:33:29.254Z,94420.09
2019-05-07T01:34:33.643Z,94424.34
2019-05-07T01:35:44.122Z,94436.84
2019-05-07T01:36:46.926Z,94424.86
2019-05-07T01:37:49.771Z,94431.80
2019-05-07T01:38:52.502Z,94437.34
2019-05-07T01:39:55.300Z,94431.73
2019-05-07T01:40:58.064Z,94436.77
2019-05-07T01:42:02.137Z,94438.09
2019-05-07T01:43:05.187Z,94436.84
2019-05-07T01:44:08.035Z,94438.67
2019-05-07T01:45:12.942Z,94430.84
2019-05-07T01:46:15.756Z,94435.64
2019-05-07T01:47:18.530Z,94433.50
2019-05-07T01:48:23.016Z,94438.83
2019-05-07T01:49:25.645Z,94440.24
2019-05-07T01:50:28.471Z,94441.26
2019-05-07T01:51:32.644Z,94439.11
2019-05-07T01:52:35.520Z,94439.72
2019-05-07T01:53:38.268Z,94442.09
2019-05-07T01:54:42.595Z,94437.50
2019-05-07T01:55:45.556Z,94435.12
2019-05-07T01:56:48.428Z,94444.45
2019-05-07T01:57:52.274Z,94441.70
2019-05-07T01:58:55.131Z,94440.00
2019-05-07T01:59:57.976Z,94443.27
2019-05-07T02:01:02.797Z,94440.59
2019-05-07T02:02:06.870Z,94443.79
2019-05-07T02:03:20.158Z,94440.00
2019-05-07T02:04:32.548Z,94449.03
2019-05-07T02:05:42.505Z,94442.38
2019-05-07T02:07:02.995Z,94451.98
2019-05-07T02:08:07.397Z,94446.37
2019-05-07T02:09:30.086Z,94448.52
2019-05-07T02:10:37.077Z,94445.93
2019-05-07T02:11:42.238Z,94445.61
2019-05-07T02:12:45.069Z,94456.59
2019-05-07T02:13:47.824Z,94439.70
2019-05-07T02:14:52.913Z,94447.47
2019-05-07T02:16:01.267Z,94447.47
2019-05-07T02:16:59.753Z,94453.20
2019-05-07T02:18:02.597Z,94454.02
2019-05-07T02:19:05.356Z,94452.27
2019-05-07T02:20:08.096Z,94455.98
2019-05-07T02:21:12.737Z,94460.39
2019-05-07T02:22:15.246Z,94458.77
2019-05-07T02:23:17.986Z,94450.54
2019-05-07T02:24:21.984Z,94464.09
2019-05-07T02:25:24.935Z,94460.67
2019-05-07T02:26:27.703Z,94466.23
2019-05-07T02:27:32.642Z,94465.11
2019-05-07T02:28:34.898Z,94464.67
2019-05-07T02:29:38.293Z,94466.84
2019-05-07T02:30:44.245Z,94469.83
2019-05-07T02:31:45.519Z,94470.76
2019-05-07T02:32:48.209Z,94465.11
2019-05-07T02:33:53.822Z,94465.43
2019-05-07T02:34:55.374Z,94470.23
2019-05-07T02:35:58.318Z,94474.75
2019-05-07T02:37:04.127Z,94467.28
2019-05-07T02:38:13.697Z,94468.09
2019-05-07T02:39:33.073Z,94460.02
2019-05-07T02:40:36.247Z,94466.36
2019-05-07T02:41:38.996Z,94463.20
2019-05-07T02:42:44.230Z,94470.16
2019-05-07T02:43:46.189Z,94458.80
2019-05-07T02:45:08.766Z,94467.69
2019-05-07T02:46:29.489Z,94471.63
2019-05-07T02:47:23.765Z,94468.21
2019-05-07T02:48:28.269Z,94465.27
2019-05-07T02:49:53.642Z,94458.60
2019-05-07T02:50:59.818Z,94474.06
2019-05-07T02:52:04.268Z,94466.07
2019-05-07T02:53:08.694Z,94464.22
2019-05-07T02:54:13.502Z,94476.20
2019-05-07T02:55:17.980Z,94473.25
2019-05-07T02:56:23.557Z,94466.88
2019-05-07T02:57:26.003Z,94473.02
2019-05-07T02:58:28.898Z,94483.02
2019-05-07T02:59:35.833Z,94480.64
2019-05-07T03:00:38.857Z,94478.78
2019-05-07T03:01:43.269Z,94482.58
2019-05-07T03:02:47.912Z,94478.06
2019-05-07T03:03:52.877Z,94480.20
2019-05-07T03:04:55.581Z,94482.14
2019-05-07T03:06:03.219Z,94487.99
2019-05-07T03:07:08.222Z,94488.52
2019-05-07T03:08:13.997Z,94485.53
2019-05-07T03:09:16.855Z,94489.53
2019-05-07T03:10:23.668Z,94490.34
2019-05-07T03:11:27.182Z,94492.80
2019-05-07T03:12:33.257Z,94495.46
2019-05-07T03:13:34.680Z,94501.57
2019-05-07T03:14:37.564Z,94499.14
2019-05-07T03:15:45.828Z,94487.15
2019-05-07T03:16:49.529Z,94499.31
2019-05-07T03:17:54.100Z,94489.61
2019-05-07T03:18:58.924Z,94487.03
2019-05-07T03:20:03.543Z,94492.66
2019-05-07T03:21:08.166Z,94491.84
2019-05-07T03:22:13.939Z,94492.56
2019-05-07T03:23:22.723Z,94483.76
2019-05-07T03:24:34.566Z,94503.83
2019-05-07T03:25:43.152Z,94504.55
2019-05-07T03:26:47.297Z,94488.86
2019-05-07T03:27:53.352Z,94482.19
2019-05-07T03:28:57.640Z,94489.84
2019-05-07T03:30:04.419Z,94484.73
2019-05-07T03:31:19.340Z,94484.32
2019-05-07T03:32:28.076Z,94484.09
2019-05-07T03:33:38.714Z,94488.89
2019-05-07T03:35:06.826Z,94488.69
2019-05-07T03:36:08.150Z,94488.14
2019-05-07T03:37:13.477Z,94486.27
2019-05-07T03:38:16.576Z,94490.17
2019-05-07T03:39:20.443Z,94493.27
2019-05-07T03:40:23.892Z,94489.80
2019-05-07T03:41:27.299Z,94498.31
2019-05-07T03:42:33.571Z,94500.25
2019-05-07T03:43:38.540Z,94492.80
2019-05-07T03:44:53.494Z,94494.55
2019-05-07T03:46:15.849Z,94499.88
2019-05-07T03:47:23.551Z,94505.44
2019-05-07T03:48:26.856Z,94505.53
2019-05-07T03:49:35.887Z,94501.12
2019-05-07T03:50:42.855Z,94502.77
2019-05-07T03:51:44.514Z,94499.73
2019-05-07T03:52:47.344Z,94503.13
2019-05-07T03:53:50.249Z,94504.47
2019-05-07T03:54:54.058Z,94508.97
2019-05-07T03:55:57.190Z,94504.05
2019-05-07T03:57:08.695Z,94511.70
2019-05-07T03:58:04.744Z,94510.03
2019-05-07T03:59:07.641Z,94520.22
2019-05-07T04:00:12.919Z,94524.52
2019-05-07T04:01:16.853Z,94522.34
2019-05-07T04:02:23.660Z,94519.02
2019-05-07T04:03:24.957Z,94538.07
2019-05-07T04:04:33.472Z,94528.80
2019-05-07T04:05:36.376Z,94520.86
2019-05-07T04:06:43.281Z,94525.94
2019-05-07T04:07:43.827Z,94524.17
2019-05-07T04:08:46.729Z,94530.72
2019-05-07T04:09:49.578Z,94527.54
2019-05-07T04:10:54.317Z,94529.16
2019-05-07T04:11:58.765Z,94525.63
2019-05-07T04:13:04.482Z,94531.48
2019-05-07T04:14:07.818Z,94530.53
2019-05-07T04:15:14.595Z,94535.22
2019-05-07T04:16:17.811Z,94523.48
2019-05-07T04:17:25.625Z,94537.85
2019-05-07T04:18:25.427Z,94526.88
2019-05-07T04:19:32.645Z,94538.14
2019-05-07T04:20:34.434Z,94531.10
2019-05-07T04:21:39.145Z,94532.20
2019-05-07T04:22:43.172Z,94537.24
2019-05-07T04:23:54.017Z,94533.25
2019-05-07T04:25:16.395Z,94539.09
2019-05-07T04:26:23.810Z,94541.23
2019-05-07T04:27:28.243Z,94542.86
2019-05-07T04:28:33.403Z,94550.27
2019-05-07T04:29:38.119Z,94532.95
2019-05-07T04:30:43.729Z,94533.53
2019-05-07T04:31:46.986Z,94537.77
2019-05-07T04:32:56.113Z,94535.82
2019-05-07T04:34:03.413Z,94539.38
2019-05-07T04:35:09.439Z,94533.25
2019-05-07T04:36:18.616Z,94540.42
2019-05-07T04:37:23.920Z,94548.19
2019-05-07T04:38:25.645Z,94530.58
2019-05-07T04:39:28.563Z,94539.18
2019-05-07T04:40:33.794Z,94527.20
2019-05-07T04:41:36.152Z,94544.70
2019-05-07T04:42:39.009Z,94541.76
2019-05-07T04:43:43.454Z,94533.25
2019-05-07T04:44:46.245Z,94542.28
2019-05-07T04:45:49.056Z,94540.42
2019-05-07T04:46:54.602Z,94543.61
2019-05-07T04:47:57.445Z,94544.52
2019-05-07T04:49:03.282Z,94544.52
2019-05-07T04:50:06.276Z,94549.22
2019-05-07T04:51:12.577Z,94547.60
2019-05-07T04:52:16.215Z,94543.29
2019-05-07T04:53:23.367Z,94544.33
2019-05-07T04:54:24.710Z,94542.77
2019-05-07T04:55:27.554Z,94539.00
2019-05-07T04:56:33.159Z,94539.30
2019-05-07T04:57:35.028Z,94544.94
2019-05-07T04:58:37.826Z,94547.38
2019-05-07T04:59:42.802Z,94545.61
2019-05-07T05:00:45.205Z,94545.84
2019-05-07T05:01:49.646Z,94546.94
2019-05-07T05:02:57.903Z,94550.94
2019-05-07T05:04:17.516Z,94549.92
2019-05-07T05:05:06.405Z,94551.45
2019-05-07T05:06:09.226Z,94552.59
2019-05-07T05:07:13.364Z,94556.59
2019-05-07T05:08:16.435Z,94556.36
2019-05-07T05:09:23.230Z,94557.92
2019-05-07T05:10:23.861Z,94546.52
2019-05-07T05:11:26.664Z,94555.92
2019-05-07T05:12:32.459Z,94559.11
2019-05-07T05:13:35.079Z,94555.83
2019-05-07T05:22:31.747Z,94559.63
2019-05-07T05:34:05.743Z,94570.14
2019-05-07T05:35:36.068Z,94573.33
2019-05-07T05:37:05.582Z,94580.08
2019-05-07T05:38:25.799Z,94575.56
2019-05-07T05:41:51.857Z,94578.55
2019-05-07T05:43:31.991Z,94576.93
2019-05-07T05:45:21.960Z,94589.86
2019-05-07T05:48:26.847Z,94583.86
2019-05-07T05:49:54.813Z,94585.45
2019-05-07T05:51:37.714Z,94586.98
2019-05-07T06:00:33.079Z,94602.30
2019-05-07T06:02:12.064Z,94601.58
2019-05-07T06:07:36.277Z,94609.98
2019-05-07T06:09:03.348Z,94613.30
2019-05-07T06:10:36.446Z,94611.92
2019-05-07T06:12:26.788Z,94614.59
2019-05-07T06:19:26.721Z,94608.28
2019-05-07T06:21:14.909Z,94612.33
2019-05-07T06:23:03.398Z,94615.22
2019-05-07T06:28:54.525Z,94616.50
2019-05-07T06:31:59.429Z,94620.66
2019-05-07T06:35:32.240Z,94624.05
2019-05-07T06:36:36.703Z,94629.61
2019-05-07T06:38:08.890Z,94635.67
2019-05-07T06:39:39.215Z,94621.97
2019-05-07T06:41:02.729Z,94624.31
2019-05-07T06:42:52.316Z,94632.11
2019-05-07T06:44:27.472Z,94634.57
2019-05-07T06:45:35.539Z,94629.44
2019-05-07T06:46:57.050Z,94633.64
2019-05-07T06:53:06.645Z,94629.96
2019-05-07T06:55:49.628Z,94631.64
2019-05-07T06:57:17.990Z,94628.89
2019-05-07T07:10:36.644Z,94624.16
2019-05-07T07:16:12.829Z,94628.30
2019-05-07T07:29:03.258Z,94652.92
2019-05-07T07:31:52.721Z,94650.08
2019-05-07T07:35:28.737Z,94655.41
2019-05-07T07:37:15.947Z,94650.80
2019-05-07T07:40:48.141Z,94661.85
2019-05-07T07:42:31.964Z,94662.08
2019-05-07T07:50:15.402Z,94655.13
2019-05-07T07:51:52.411Z,94660.66
2019-05-07T07:53:09.134Z,94657.19
2019-05-07T07:56:23.051Z,94660.88
2019-05-07T08:01:06.148Z,94666.78
2019-05-07T08:02:43.100Z,94657.45
2019-05-07T08:04:42.779Z,94655.84
2019-05-07T08:06:06.168Z,94665.97
2019-05-07T08:09:12.743Z,94657.34
2019-05-07T08:12:02.975Z,94672.10
2019-05-07T08:13:35.202Z,94669.63
2019-05-07T08:16:44.529Z,94673.63
2019-05-07T08:18:11.841Z,94677.72
2019-05-07T08:19:48.863Z,94684.09
2019-05-07T08:21:19.133Z,94680.30
2019-05-07T08:24:13.713Z,94677.43
2019-05-07T08:29:02.862Z,94677.20
2019-05-07T08:30:52.588Z,94681.52
2019-05-07T08:37:13.770Z,94685.20
2019-05-07T08:39:02.890Z,94685.62
2019-05-07T08:40:34.431Z,94688.72
2019-05-07T08:45:07.370Z,94699.09
2019-05-07T08:46:47.620Z,94692.42
2019-05-07T08:48:18.172Z,94698.27
2019-05-07T08:49:57.840Z,94689.14
2019-05-07T08:51:22.369Z,94691.00
2019-05-07T08:52:52.242Z,94691.17
2019-05-07T08:54:23.815Z,94691.92
2019-05-07T08:56:04.010Z,94692.73
2019-05-07T08:57:31.902Z,94695.30
2019-05-07T09:00:28.216Z,94695.30
2019-05-07T09:02:02.804Z,94700.34
2019-05-07T09:05:09.107Z,94698.39
2019-05-07T09:06:32.256Z,94699.92
2019-05-07T09:08:08.833Z,94700.67
2019-05-07T09:09:32.089Z,94699.53
2019-05-07T09:13:56.168Z,94700.34
2019-05-07T09:15:18.913Z,94698.00
2019-05-07T09:17:14.724Z,94707.23
2019-05-07T09:19:02.608Z,94705.09
2019-05-07T09:20:23.928Z,94704.25
2019-05-07T09:23:42.331Z,94714.70
2019-05-07T09:25:03.744Z,94707.81
2019-05-07T09:26:53.152Z,94700.44
2019-05-07T09:28:25.539Z,94715.61
2019-05-07T09:30:02.587Z,94709.67
2019-05-07T09:31:33.495Z,94712.33
2019-05-07T09:34:37.094Z,94709.47
2019-05-07T09:35:54.498Z,94713.38
2019-05-07T09:38:56.160Z,94707.95
2019-05-07T09:40:44.667Z,94710.91
2019-05-07T09:42:22.537Z,94715.52
2019-05-07T09:45:39.437Z,94726.89
2019-05-07T09:47:21.857Z,94722.17
2019-05-07T09:48:53.485Z,94718.90
2019-05-07T09:52:42.514Z,94722.08
2019-05-07T09:56:12.913Z,94735.11
2019-05-07T09:57:30.868Z,94733.27
2019-05-07T09:58:59.519Z,94733.45
2019-05-07T10:05:15.969Z,94738.72
2019-05-07T10:08:25.254Z,94749.66
2019-05-07T10:11:47.474Z,94736.12
2019-05-07T10:13:44.796Z,94733.97
2019-05-07T10:15:12.335Z,94735.31
2019-05-07T10:18:19.938Z,94733.69
2019-05-07T10:19:47.924Z,94734.20
2019-05-07T10:25:54.880Z,94745.38
2019-05-07T10:27:41.757Z,94741.06
2019-05-07T10:30:46.167Z,94741.87
2019-05-07T10:34:08.705Z,94744.24
2019-05-07T10:36:49.105Z,94753.05
2019-05-07T10:37:52.825Z,94748.66
2019-05-07T10:38:55.852Z,94747.33
2019-05-07T10:39:58.614Z,94748.37
2019-05-07T10:41:02.814Z,94748.86
2019-05-07T10:42:05.735Z,94750.19
2019-05-07T10:43:08.527Z,94749.17
2019-05-07T10:44:12.048Z,94747.33
2019-05-07T10:45:16.659Z,94749.80
2019-05-07T10:46:27.013Z,94746.28
2019-05-07T10:47:37.421Z,94747.95
2019-05-07T10:48:41.880Z,94745.05
2019-05-07T10:49:49.087Z,94747.33
2019-05-07T10:50:55.921Z,94753.17
2019-05-07T10:51:58.675Z,94754.41
2019-05-07T10:53:02.059Z,94753.89
2019-05-07T10:54:05.133Z,94749.89
2019-05-07T10:55:07.990Z,94756.55
2019-05-07T10:56:11.887Z,94761.59
2019-05-07T10:57:14.756Z,94749.60
2019-05-07T10:58:17.525Z,94749.37
2019-05-07T10:59:22.368Z,94754.41
2019-05-07T11:00:26.197Z,94755.22
2019-05-07T11:01:33.369Z,94764.25
2019-05-07T11:02:39.200Z,94757.88
2019-05-07T11:03:40.583Z,94758.59
2019-05-07T11:04:45.832Z,94763.21
2019-05-07T11:05:47.772Z,94765.58
2019-05-07T11:06:52.299Z,94770.39
2019-05-07T11:07:55.002Z,94761.88
2019-05-07T11:08:57.773Z,94763.02
2019-05-07T11:10:02.080Z,94762.11
2019-05-07T11:11:04.807Z,94757.07
2019-05-07T11:12:07.688Z,94768.02
2019-05-07T11:13:12.676Z,94762.11
2019-05-07T11:14:14.885Z,94768.25
2019-05-07T11:15:17.873Z,94766.30
2019-05-07T11:16:22.128Z,94770.59
2019-05-07T11:17:42.949Z,94771.10
2019-05-07T11:18:51.776Z,94770.91
2019-05-07T11:19:54.667Z,94768.25
2019-05-07T11:20:57.425Z,94782.16
2019-05-07T11:22:00.265Z,94788.00
2019-05-07T11:23:03.041Z,94787.48
2019-05-07T11:24:05.805Z,94780.52
2019-05-07T11:25:08.673Z,94781.56
2019-05-07T11:26:11.886Z,94782.28
2019-05-07T11:27:14.816Z,94782.28
2019-05-07T11:28:17.543Z,94785.98
2019-05-07T11:29:22.053Z,94789.97
2019-05-07T11:30:24.898Z,94791.59
2019-05-07T11:31:27.679Z,94785.75
2019-05-07T11:32:32.149Z,94791.59
2019-05-07T11:33:36.801Z,94803.59
2019-05-07T11:34:42.250Z,94797.45
2019-05-07T11:35:45.214Z,94798.55
2019-05-07T11:36:48.014Z,94800.92
2019-05-07T11:37:52.079Z,94800.92
2019-05-07T11:38:55.060Z,94805.73
2019-05-07T11:39:57.745Z,94800.21
2019-05-07T11:41:02.291Z,94810.77
2019-05-07T11:42:12.735Z,94815.05
2019-05-07T11:43:29.376Z,94813.11
2019-05-07T11:44:32.204Z,94808.79
2019-05-07T11:45:36.758Z,94815.25
2019-05-07T11:46:44.486Z,94814.44
2019-05-07T11:47:47.434Z,94820.78
2019-05-07T11:48:52.982Z,94813.82
2019-05-07T11:50:14.806Z,94807.45
2019-05-07T11:51:23.103Z,94811.26
2019-05-07T11:52:27.585Z,94817.10
2019-05-07T11:53:32.741Z,94814.44
2019-05-07T11:54:35.640Z,94811.67
2019-05-07T11:55:38.421Z,94806.64
2019-05-07T11:56:42.217Z,94811.78
2019-05-07T11:57:45.279Z,94814.22
2019-05-07T11:58:50.642Z,94811.06
2019-05-07T11:59:54.348Z,94815.25
2019-05-07T12:01:03.663Z,94818.44
2019-05-07T12:02:06.081Z,94813.01
2019-05-07T12:03:08.923Z,94824.19
2019-05-07T12:04:12.521Z,94825.70
2019-05-07T12:05:15.420Z,94822.75
2019-05-07T12:06:18.110Z,94817.09
2019-05-07T12:07:22.340Z,94820.28
2019-05-07T12:08:37.454Z,94822.12
2019-05-07T12:09:29.679Z,94826.94
2019-05-07T12:10:32.767Z,94828.08
2019-05-07T12:11:35.725Z,94814.53
2019-05-07T12:12:40.133Z,94819.27
2019-05-07T12:13:42.929Z,94822.64
2019-05-07T12:14:45.692Z,94818.84
2019-05-07T12:15:48.454Z,94817.03
2019-05-07T12:16:52.405Z,94822.12
2019-05-07T12:17:57.112Z,94819.98
2019-05-07T12:19:02.306Z,94818.66
2019-05-07T12:20:05.838Z,94818.43
2019-05-07T12:21:18.212Z,94827.68
2019-05-07T12:22:14.689Z,94829.60
2019-05-07T12:23:17.456Z,94818.95
2019-05-07T12:24:22.218Z,94825.61
2019-05-07T12:25:24.851Z,94822.64
2019-05-07T12:26:27.648Z,94829.08
2019-05-07T12:27:32.202Z,94823.46
2019-05-07T12:28:36.620Z,94833.92
2019-05-07T12:29:39.328Z,94822.94
2019-05-07T12:30:55.704Z,94828.78
2019-05-07T12:32:16.642Z,94826.64
2019-05-07T12:33:37.344Z,94826.64
2019-05-07T12:34:42.315Z,94830.64
2019-05-07T12:35:52.783Z,94833.01
2019-05-07T12:36:52.449Z,94838.52
2019-05-07T12:37:55.332Z,94836.67
2019-05-07T12:39:02.096Z,94851.95
2019-05-07T12:40:03.217Z,94841.00
2019-05-07T12:41:23.880Z,94834.63
2019-05-07T12:42:26.633Z,94836.05
2019-05-07T12:43:29.485Z,94835.05
2019-05-07T12:44:32.303Z,94842.71
2019-05-07T12:45:35.136Z,94844.66
2019-05-07T12:46:38.095Z,94839.56
2019-05-07T12:47:42.207Z,94832.39
2019-05-07T12:48:45.775Z,94842.22
2019-05-07T12:49:48.666Z,94834.66
2019-05-07T12:50:52.557Z,94843.65
2019-05-07T12:52:02.153Z,94838.12
2019-05-07T12:53:22.437Z,94849.89
2019-05-07T12:54:33.637Z,94844.37
2019-05-07T12:55:42.871Z,94857.17
2019-05-07T12:56:45.785Z,94841.90
2019-05-07T12:57:48.658Z,94846.41
2019-05-07T12:58:51.848Z,94856.55
2019-05-07T12:59:54.718Z,94848.27
2019-05-07T13:00:59.163Z,94851.12
2019-05-07T13:02:33.244Z,94854.11
2019-05-07T13:03:21.927Z,94860.55
2019-05-07T13:04:32.585Z,94856.77
2019-05-07T13:05:35.693Z,94853.48
2019-05-07T13:06:40.115Z,94860.44
2019-05-07T13:07:47.656Z,94852.77
2019-05-07T13:08:52.081Z,94858.63
2019-05-07T13:09:55.176Z,94856.45
2019-05-07T13:10:58.052Z,94857.48
2019-05-07T13:12:03.105Z,94855.85
2019-05-07T13:13:05.438Z,94857.48
2019-05-07T13:14:08.176Z,94855.52
2019-05-07T13:15:23.990Z,94863.84
2019-05-07T13:16:15.517Z,94855.52
2019-05-07T13:17:18.419Z,94864.14
2019-05-07T13:18:22.642Z,94862.19
2019-05-07T13:19:25.538Z,94862.19
2019-05-07T13:20:29.574Z,94866.70
2019-05-07T13:21:45.886Z,94866.70
2019-05-07T13:22:37.167Z,94863.10
2019-05-07T13:23:42.038Z,94870.80
2019-05-07T13:24:44.392Z,94872.13
2019-05-07T13:25:47.164Z,94874.98
2019-05-07T13:26:51.775Z,94883.48
2019-05-07T13:27:54.543Z,94881.34
2019-05-07T13:28:59.186Z,94873.25
2019-05-07T13:30:02.704Z,94886.16
2019-05-07T13:31:07.482Z,94871.20
2019-05-07T13:32:12.190Z,94879.49
2019-05-07T13:33:16.985Z,94875.72
2019-05-07T13:34:19.809Z,94878.58
2019-05-07T13:35:23.570Z,94876.65
2019-05-07T13:36:29.242Z,94880.13
2019-05-07T13:37:33.641Z,94888.41
2019-05-07T13:38:39.611Z,94881.13
2019-05-07T13:39:44.032Z,94889.97
2019-05-07T13:41:02.112Z,94888.83
2019-05-07T13:42:14.753Z,94887.30
2019-05-07T13:43:28.110Z,94887.79
2019-05-07T13:44:47.511Z,94884.53
2019-05-07T13:46:08.419Z,94887.49
2019-05-07T13:47:25.222Z,94890.45
2019-05-07T13:48:27.985Z,94886.35
2019-05-07T13:49:32.320Z,94888.72
2019-05-07T13:50:35.145Z,94888.72
2019-05-07T13:51:38.175Z,94896.92
2019-05-07T13:52:43.255Z,94892.52
2019-05-07T13:53:45.813Z,94884.42
2019-05-07T13:54:49.917Z,94894.75
2019-05-07T13:55:52.709Z,94914.12
2019-05-07T13:56:55.505Z,94898.26
2019-05-07T13:57:58.253Z,94888.20
2019-05-07T13:59:04.634Z,94894.16
2019-05-07T14:00:06.779Z,94893.53
2019-05-07T14:01:28.525Z,94900.59
2019-05-07T14:02:32.317Z,94896.82
2019-05-07T14:03:35.082Z,94894.16
2019-05-07T14:04:37.845Z,94895.05
2019-05-07T14:05:42.537Z,94906.03
2019-05-07T14:06:45.028Z,94896.49
2019-05-07T14:07:47.830Z,94902.34
2019-05-07T14:08:51.787Z,94899.67
2019-05-07T14:09:54.857Z,94909.09
2019-05-07T14:10:57.721Z,94917.80
2019-05-07T14:12:02.018Z,94908.47
2019-05-07T14:13:12.664Z,94911.47
2019-05-07T14:14:09.367Z,94910.55
2019-05-07T14:15:12.719Z,94911.55
2019-05-07T14:16:15.537Z,94909.70
2019-05-07T14:17:18.447Z,94913.39
2019-05-07T14:18:23.226Z,94915.24
2019-05-07T14:19:25.664Z,94918.20
2019-05-07T14:20:28.441Z,94917.91
2019-05-07T14:21:32.509Z,94919.23
2019-05-07T14:22:35.490Z,94915.24
2019-05-07T14:23:39.396Z,94912.58
2019-05-07T14:24:42.305Z,94920.23
2019-05-07T14:25:45.135Z,94922.91
2019-05-07T14:26:47.994Z,94913.59
2019-05-07T14:27:52.635Z,94915.24
2019-05-07T14:28:55.542Z,94924.56
2019-05-07T14:29:58.328Z,94920.23
2019-05-07T14:31:02.253Z,94921.79
2019-05-07T14:32:18.693Z,94920.05
2019-05-07T14:33:38.024Z,94932.95
2019-05-07T14:34:58.852Z,94930.89
2019-05-07T14:36:03.241Z,94934.88
2019-05-07T14:37:12.779Z,94932.44
2019-05-07T14:38:22.562Z,94925.48
2019-05-07T14:39:24.762Z,94927.63
2019-05-07T14:40:27.733Z,94922.49
2019-05-07T14:41:32.587Z,94929.67
2019-05-07T14:42:45.335Z,94931.63
2019-05-07T14:43:55.868Z,94929.97
2019-05-07T14:44:58.677Z,94935.62
2019-05-07T14:46:02.725Z,94935.80
2019-05-07T14:47:05.786Z,94934.48
2019-05-07T14:48:08.593Z,94941.87
2019-05-07T14:49:12.041Z,94936.73
2019-05-07T14:50:16.211Z,94956.80
2019-05-07T14:51:19.001Z,94945.34
2019-05-07T14:52:30.303Z,94951.67
2019-05-07T14:53:26.297Z,94948.41
2019-05-07T14:54:29.307Z,94955.47
2019-05-07T14:55:32.529Z,94936.43
2019-05-07T14:56:35.820Z,94949.63
2019-05-07T14:57:38.732Z,94946.97
2019-05-07T14:58:42.300Z,94938.98
2019-05-07T14:59:45.256Z,94939.61
2019-05-07T15:00:48.103Z,94946.27
2019-05-07T15:01:52.221Z,94950.97
2019-05-07T15:02:56.452Z,94957.62
2019-05-07T15:03:59.418Z,94941.13
2019-05-07T15:05:05.356Z,94945.34
2019-05-07T15:06:08.419Z,94944.02
2019-05-07T15:07:12.182Z,94944.38
2019-05-07T15:08:14.879Z,94946.73
2019-05-07T15:09:17.694Z,94946.51
2019-05-07T15:10:22.215Z,94949.59
2019-05-07T15:11:25.144Z,94948.25
2019-05-07T15:12:29.862Z,94946.95
2019-05-07T15:13:32.439Z,94954.56
2019-05-07T15:14:35.192Z,94949.64
2019-05-07T15:15:38.184Z,94956.22
2019-05-07T15:16:42.639Z,94960.08
2019-05-07T15:17:47.044Z,94953.52
2019-05-07T15:18:53.991Z,94955.25
2019-05-07T15:19:57.848Z,94959.11
2019-05-07T15:21:01.874Z,94958.72
2019-05-07T15:22:24.956Z,94955.84
2019-05-07T15:23:34.025Z,94954.36
2019-05-07T15:24:36.822Z,94953.98
2019-05-07T15:25:41.325Z,94949.72
2019-05-07T15:26:44.189Z,94959.99
2019-05-07T15:27:48.047Z,94953.33
2019-05-07T15:28:58.486Z,94954.59
2019-05-07T15:30:02.431Z,94956.83
2019-05-07T15:31:07.018Z,94962.23
2019-05-07T15:32:12.464Z,94954.43
2019-05-07T15:33:15.257Z,94953.57
2019-05-07T15:34:19.288Z,94950.07
2019-05-07T15:35:22.108Z,94955.61
2019-05-07T15:36:25.042Z,94956.19
2019-05-07T15:37:27.960Z,94950.77
2019-05-07T15:38:32.348Z,94944.83
2019-05-07T15:39:35.474Z,94955.37
2019-05-07T15:40:38.298Z,94959.51
2019-05-07T15:41:42.470Z,94958.86
2019-05-07T15:42:45.575Z,94960.97
2019-05-07T15:43:48.432Z,94961.01
2019-05-07T15:44:52.824Z,94967.25
2019-05-07T15:45:58.836Z,94960.39
2019-05-07T15:47:03.287Z,94961.77
2019-05-07T15:48:06.210Z,94964.64
2019-05-07T15:49:09.148Z,94962.96
2019-05-07T15:50:12.493Z,94964.11
2019-05-07T15:51:19.895Z,94959.11
2019-05-07T15:52:42.530Z,94967.06
2019-05-07T15:56:41.019Z,94963.45
2019-05-07T15:57:43.785Z,94967.75
2019-05-07T15:58:46.575Z,94973.98
2019-05-07T15:59:52.426Z,94978.55
2019-05-07T16:00:55.342Z,94974.18
2019-05-07T16:02:08.748Z,94978.37
2019-05-07T16:03:13.175Z,94981.29
2019-05-07T16:04:22.209Z,94981.23
2019-05-07T16:05:22.353Z,94981.67
2019-05-07T16:06:24.758Z,94975.53
2019-05-07T16:07:27.555Z,94978.26